Time,TemperatureF,DewpointF,PressureIn,WindDirection,WindDirectionDegrees,WindSpeedMPH,WindSpeedGustMPH,Humidity,HourlyPrecipIn,Conditions,Clouds,dailyrainin,SolarRadiationWatts/m^2,SoftwareType,DateUTC
2013-11-07 00:09:00,61.8,60.9,30.10,NNW,344,0.0,2.0,97,0.19,,,0.04,0,Wunderground v.1.15,2013-11-07 06:09:00,
2013-11-07 00:14:00,61.8,60.9,30.09,West,274,1.0,3.0,97,0.10,,,0.04,0,Wunderground v.1.15,2013-11-07 06:14:00,
2013-11-07 00:24:00,61.4,60.5,30.10,NNE,12,1.0,3.0,97,0.13,,,0.06,0,Wunderground v.1.15,2013-11-07 06:24:00,
2013-11-07 00:29:00,61.3,60.4,30.09,NW,313,1.0,3.0,97,0.23,,,0.08,0,Wunderground v.1.15,2013-11-07 06:29:00,
2013-11-07 00:39:00,60.9,60.0,30.09,West,261,1.0,2.0,97,0.05,,,0.08,0,Wunderground v.1.15,2013-11-07 06:39:00,
2013-11-07 00:44:00,60.7,59.8,30.09,NW,312,1.0,1.0,97,0.04,,,0.08,0,Wunderground v.1.15,2013-11-07 06:44:00,
2013-11-07 00:54:00,60.6,59.7,30.09,West,265,0.0,1.0,97,0.00,,,0.08,0,Wunderground v.1.15,2013-11-07 06:54:00,
2013-11-07 01:04:00,60.3,59.4,30.08,West,265,0.0,0.0,97,0.00,,,0.08,0,Wunderground v.1.15,2013-11-07 07:04:00,
2013-11-07 01:14:00,60.2,59.3,30.08,West,265,0.0,0.0,97,0.00,,,0.09,0,Wunderground v.1.15,2013-11-07 07:14:00,
2013-11-07 01:19:00,60.2,59.3,30.07,West,265,0.0,0.0,97,0.08,,,0.09,0,Wunderground v.1.15,2013-11-07 07:19:00,
2013-11-07 01:29:00,60.1,59.2,30.06,West,265,0.0,0.0,97,0.06,,,0.10,0,Wunderground v.1.15,2013-11-07 07:29:00,
2013-11-07 01:39:00,60.0,59.1,30.06,WSW,254,0.0,0.0,97,0.05,,,0.11,0,Wunderground v.1.15,2013-11-07 07:39:00,
2013-11-07 01:44:00,60.0,59.1,30.06,WSW,254,0.0,0.0,97,0.05,,,0.11,0,Wunderground v.1.15,2013-11-07 07:44:00,
2013-11-07 01:54:00,59.9,59.0,30.07,WSW,254,0.0,0.0,97,0.00,,,0.11,0,Wunderground v.1.15,2013-11-07 07:54:00,
2013-11-07 02:04:00,59.9,59.0,30.07,WSW,254,0.0,0.0,97,0.00,,,0.11,0,Wunderground v.1.15,2013-11-07 08:04:00,
2013-11-07 02:09:00,59.9,59.0,30.07,WSW,254,0.0,0.0,97,0.00,,,0.12,0,Wunderground v.1.15,2013-11-07 08:09:00,
2013-11-07 02:19:00,59.8,59.2,30.07,WSW,254,0.0,0.0,98,0.11,,,0.14,0,Wunderground v.1.15,2013-11-07 08:19:00,
2013-11-07 02:29:00,59.8,59.2,30.07,WSW,254,0.0,0.0,98,0.06,,,0.15,0,Wunderground v.1.15,2013-11-07 08:29:00,
2013-11-07 02:34:00,59.8,59.2,30.07,WSW,254,0.0,0.0,98,0.06,,,0.15,0,Wunderground v.1.15,2013-11-07 08:34:00,
2013-11-07 02:44:00,59.7,59.1,30.07,WSW,254,0.0,0.0,98,0.00,,,0.15,0,Wunderground v.1.15,2013-11-07 08:44:00,
2013-11-07 02:49:00,59.7,59.1,30.07,WSW,254,0.0,0.0,98,0.00,,,0.15,0,Wunderground v.1.15,2013-11-07 08:49:00,
2013-11-07 02:59:00,59.7,59.1,30.07,WSW,256,0.0,0.0,98,0.00,,,0.15,0,Wunderground v.1.15,2013-11-07 08:59:00,
2013-11-07 03:04:00,59.6,59.0,30.07,WSW,256,0.0,0.0,98,0.00,,,0.16,0,Wunderground v.1.15,2013-11-07 09:04:00,
2013-11-07 03:14:00,59.6,59.0,30.07,WSW,256,0.0,0.0,98,0.00,,,0.16,0,Wunderground v.1.15,2013-11-07 09:14:00,
2013-11-07 03:19:00,59.6,59.0,30.07,WSW,256,0.0,0.0,98,0.00,,,0.17,0,Wunderground v.1.15,2013-11-07 09:19:00,
2013-11-07 03:34:00,57.8,57.0,30.09,West,268,3.0,7.0,97,0.07,,,0.18,0,Wunderground v.1.15,2013-11-07 09:34:00,
2013-11-07 03:44:00,55.2,54.4,30.10,WNW,302,3.0,3.0,97,0.05,,,0.19,0,Wunderground v.1.15,2013-11-07 09:44:00,
2013-11-07 03:49:00,54.0,52.9,30.11,NNW,345,4.0,4.0,96,0.05,,,0.19,0,Wunderground v.1.15,2013-11-07 09:49:00,
2013-11-07 03:59:00,52.6,51.8,30.12,NNE,16,4.0,4.0,97,0.00,,,0.19,0,Wunderground v.1.15,2013-11-07 09:59:00,
2013-11-07 04:04:00,52.2,51.1,30.12,North,349,3.0,3.0,96,0.00,,,0.19,0,Wunderground v.1.15,2013-11-07 10:04:00,
2013-11-07 04:14:00,51.2,50.1,30.12,WSW,257,3.0,7.0,96,0.00,,,0.19,0,Wunderground v.1.15,2013-11-07 10:14:00,
2013-11-07 04:19:00,50.9,49.8,30.13,WNW,302,2.0,7.0,96,0.00,,,0.19,0,Wunderground v.1.15,2013-11-07 10:19:00,
2013-11-07 04:29:00,50.5,49.4,30.13,North,350,2.0,4.0,96,0.00,,,0.19,0,Wunderground v.1.15,2013-11-07 10:29:00,
2013-11-07 04:34:00,50.3,49.2,30.13,WSW,242,2.0,2.0,96,0.00,,,0.19,0,Wunderground v.1.15,2013-11-07 10:34:00,
2013-11-07 04:44:00,49.9,49.1,30.14,NNW,331,2.0,2.0,97,0.00,,,0.19,0,Wunderground v.1.15,2013-11-07 10:44:00,
2013-11-07 04:54:00,49.5,48.4,30.14,West,279,2.0,2.0,96,0.00,,,0.19,0,Wunderground v.1.15,2013-11-07 10:54:00,
2013-11-07 04:59:00,49.3,48.2,30.14,WNW,289,3.0,3.0,96,0.00,,,0.19,0,Wunderground v.1.15,2013-11-07 10:59:00,
2013-11-07 05:09:00,49.1,48.3,30.15,NNE,14,2.0,2.0,97,0.00,,,0.19,0,Wunderground v.1.15,2013-11-07 11:09:00,
2013-11-07 05:19:00,49.0,48.2,30.14,North,349,3.0,5.0,97,0.00,,,0.19,0,Wunderground v.1.15,2013-11-07 11:19:00,
2013-11-07 05:24:00,48.7,47.9,30.15,NNW,334,4.0,4.0,97,0.00,,,0.19,0,Wunderground v.1.15,2013-11-07 11:24:00,
2013-11-07 05:34:00,48.3,47.5,30.15,NW,309,2.0,10.0,97,0.00,,,0.19,0,Wunderground v.1.15,2013-11-07 11:34:00,
2013-11-07 05:44:00,47.9,46.8,30.15,WNW,302,4.0,4.0,96,0.00,,,0.19,0,Wunderground v.1.15,2013-11-07 11:44:00,
2013-11-07 05:49:00,47.6,46.8,30.15,NNW,347,3.0,4.0,97,0.00,,,0.19,0,Wunderground v.1.15,2013-11-07 11:49:00,
2013-11-07 05:59:00,47.2,46.4,30.16,North,5,4.0,13.0,97,0.00,,,0.19,0,Wunderground v.1.15,2013-11-07 11:59:00,
2013-11-07 06:09:00,46.9,46.1,30.16,NNW,336,3.0,4.0,97,0.00,,,0.19,0,Wunderground v.1.15,2013-11-07 12:09:00,
2013-11-07 06:14:00,46.8,46.0,30.16,NW,317,3.0,6.0,97,0.00,,,0.19,0,Wunderground v.1.15,2013-11-07 12:14:00,
2013-11-07 06:24:00,46.7,45.9,30.18,WSW,250,2.0,3.0,97,0.00,,,0.19,0,Wunderground v.1.15,2013-11-07 12:24:00,
2013-11-07 06:29:00,46.7,45.9,30.18,NNE,24,3.0,4.0,97,0.00,,,0.19,0,Wunderground v.1.15,2013-11-07 12:29:00,
2013-11-07 06:39:00,46.6,45.8,30.19,NW,310,4.0,5.0,97,0.00,,,0.19,5,Wunderground v.1.15,2013-11-07 12:39:00,
2013-11-07 06:44:00,46.3,45.5,30.19,NNW,331,4.0,4.0,97,0.00,,,0.19,5,Wunderground v.1.15,2013-11-07 12:44:00,
2013-11-07 06:54:00,46.0,45.2,30.20,NNW,328,3.0,3.0,97,0.00,,,0.19,16,Wunderground v.1.15,2013-11-07 12:54:00,
2013-11-07 07:04:00,45.8,45.0,30.21,North,355,3.0,4.0,97,0.00,,,0.19,19,Wunderground v.1.15,2013-11-07 13:04:00,
2013-11-07 07:14:00,45.4,44.6,30.21,North,360,4.0,4.0,97,0.00,,,0.19,21,Wunderground v.1.15,2013-11-07 13:14:00,
2013-11-07 07:19:00,45.2,44.4,30.22,NE,38,3.0,9.0,97,0.00,,,0.19,26,Wunderground v.1.15,2013-11-07 13:19:00,
2013-11-07 07:29:00,44.3,43.2,30.23,NE,55,6.0,6.0,96,0.00,,,0.19,21,Wunderground v.1.15,2013-11-07 13:29:00,
2013-11-07 07:34:00,44.1,43.0,30.23,NNE,19,4.0,4.0,96,0.00,,,0.19,21,Wunderground v.1.15,2013-11-07 13:34:00,
2013-11-07 07:44:00,44.0,42.9,30.24,NNW,344,5.0,8.0,96,0.00,,,0.19,32,Wunderground v.1.15,2013-11-07 13:44:00,
2013-11-07 07:54:00,43.9,42.8,30.24,ESE,103,3.0,3.0,96,0.00,,,0.19,28,Wunderground v.1.15,2013-11-07 13:54:00,
2013-11-07 08:04:00,43.7,42.6,30.25,NNW,336,3.0,3.0,96,0.00,,,0.19,32,Wunderground v.1.15,2013-11-07 14:04:00,
2013-11-07 08:14:00,43.4,42.3,30.26,NNW,337,3.0,3.0,96,0.00,,,0.19,40,Wunderground v.1.15,2013-11-07 14:14:00,
2013-11-07 08:19:00,43.3,42.2,30.26,North,360,3.0,3.0,96,0.00,,,0.19,49,Wunderground v.1.15,2013-11-07 14:19:00,
2013-11-07 08:29:00,43.2,42.1,30.26,NNW,329,2.0,4.0,96,0.00,,,0.19,63,Wunderground v.1.15,2013-11-07 14:29:00,
2013-11-07 08:34:00,43.1,41.8,30.27,WNW,298,2.0,3.0,95,0.00,,,0.19,63,Wunderground v.1.15,2013-11-07 14:34:00,
2013-11-07 08:44:00,43.0,41.4,30.27,WNW,302,3.0,3.0,94,0.00,,,0.19,83,Wunderground v.1.15,2013-11-07 14:44:00,
2013-11-07 08:54:00,43.1,41.5,30.28,West,281,2.0,4.0,94,0.00,,,0.19,102,Wunderground v.1.15,2013-11-07 14:54:00,
2013-11-07 08:59:00,43.2,41.3,30.27,NNW,341,4.0,4.0,93,0.00,,,0.19,111,Wunderground v.1.15,2013-11-07 14:59:00,
2013-11-07 09:09:00,43.3,40.8,30.28,NNE,24,3.0,4.0,91,0.00,,,0.19,84,Wunderground v.1.15,2013-11-07 15:09:00,
2013-11-07 09:19:00,43.2,40.8,30.28,NNE,28,6.0,8.0,91,0.00,,,0.19,148,Wunderground v.1.15,2013-11-07 15:19:00,
2013-11-07 09:24:00,43.3,40.3,30.28,North,360,6.0,8.0,89,0.00,,,0.19,163,Wunderground v.1.15,2013-11-07 15:24:00,
2013-11-07 09:34:00,43.6,40.6,30.28,NNE,15,5.0,10.0,89,0.00,,,0.19,181,Wunderground v.1.15,2013-11-07 15:34:00,
2013-11-07 09:44:00,43.8,40.5,30.28,North,5,4.0,5.0,88,0.00,,,0.19,200,Wunderground v.1.15,2013-11-07 15:44:00,
2013-11-07 09:49:00,44.0,40.7,30.28,NE,40,5.0,5.0,88,0.00,,,0.19,188,Wunderground v.1.15,2013-11-07 15:49:00,
2013-11-07 09:59:00,44.4,40.8,30.29,NNE,28,4.0,5.0,87,0.00,,,0.19,269,Wunderground v.1.15,2013-11-07 15:59:00,
2013-11-07 10:09:00,44.9,41.3,30.29,West,280,3.0,4.0,87,0.00,,,0.19,239,Wunderground v.1.15,2013-11-07 16:09:00,
2013-11-07 10:14:00,45.0,41.1,30.29,North,360,3.0,5.0,86,0.00,,,0.19,341,Wunderground v.1.15,2013-11-07 16:14:00,
2013-11-07 10:24:00,45.5,41.9,30.29,NE,50,3.0,4.0,87,0.00,,,0.19,269,Wunderground v.1.15,2013-11-07 16:24:00,
2013-11-07 10:29:00,45.6,41.7,30.29,North,360,4.0,6.0,86,0.00,,,0.19,283,Wunderground v.1.15,2013-11-07 16:29:00,
2013-11-07 10:39:00,46.9,41.1,30.29,NNE,17,4.0,10.0,80,0.00,,,0.19,740,Wunderground v.1.15,2013-11-07 16:39:00,
2013-11-07 10:44:00,47.4,41.5,30.29,NE,55,6.0,6.0,80,0.00,,,0.19,819,Wunderground v.1.15,2013-11-07 16:44:00,
2013-11-07 10:54:00,47.4,41.5,30.28,NNW,328,4.0,4.0,80,0.00,,,0.19,288,Wunderground v.1.15,2013-11-07 16:54:00,
2013-11-07 10:59:00,47.2,41.0,30.28,NNE,26,3.0,4.0,79,0.00,,,0.19,288,Wunderground v.1.15,2013-11-07 16:59:00,
2013-11-07 11:09:00,47.4,41.5,30.29,North,355,3.0,3.0,80,0.00,,,0.19,272,Wunderground v.1.15,2013-11-07 17:09:00,
2013-11-07 11:14:00,48.2,42.6,30.28,NW,323,4.0,4.0,81,0.00,,,0.19,309,Wunderground v.1.15,2013-11-07 17:14:00,
2013-11-07 11:24:00,48.7,42.1,30.28,West,270,5.0,7.0,78,0.00,,,0.19,782,Wunderground v.1.15,2013-11-07 17:24:00,
2013-11-07 11:29:00,49.0,42.1,30.27,NNE,19,5.0,7.0,77,0.00,,,0.19,740,Wunderground v.1.15,2013-11-07 17:29:00,
2013-11-07 11:39:00,49.8,41.8,30.27,WNW,298,5.0,9.0,74,0.00,,,0.19,668,Wunderground v.1.15,2013-11-07 17:39:00,
2013-11-07 11:44:00,50.4,42.8,30.27,NE,55,4.0,4.0,75,0.00,,,0.19,666,Wunderground v.1.15,2013-11-07 17:44:00,
2013-11-07 11:54:00,50.0,42.4,30.26,West,272,5.0,5.0,75,0.00,,,0.19,671,Wunderground v.1.15,2013-11-07 17:54:00,
2013-11-07 11:59:00,50.8,42.8,30.26,WNW,292,4.0,5.0,74,0.00,,,0.19,649,Wunderground v.1.15,2013-11-07 17:59:00,
2013-11-07 12:04:00,51.2,42.5,30.26,NNW,343,4.0,4.0,72,0.00,,,0.19,645,Wunderground v.1.15,2013-11-07 18:04:00,
2013-11-07 12:14:00,51.4,41.9,30.26,NNW,328,4.0,5.0,70,0.00,,,0.19,619,Wunderground v.1.15,2013-11-07 18:14:00,
2013-11-07 12:24:00,51.8,41.9,30.26,NNE,27,3.0,4.0,69,0.00,,,0.19,626,Wunderground v.1.15,2013-11-07 18:24:00,
2013-11-07 12:29:00,52.5,42.2,30.25,WNW,294,3.0,4.0,68,0.00,,,0.19,622,Wunderground v.1.15,2013-11-07 18:29:00,
2013-11-07 12:39:00,52.2,42.0,30.25,NW,305,3.0,8.0,68,0.00,,,0.19,610,Wunderground v.1.15,2013-11-07 18:39:00,
2013-11-07 12:49:00,52.6,41.6,30.25,WNW,288,3.0,4.0,66,0.00,,,0.19,594,Wunderground v.1.15,2013-11-07 18:49:00,
2013-11-07 12:54:00,52.8,41.4,30.25,WNW,283,3.0,3.0,65,0.00,,,0.19,591,Wunderground v.1.15,2013-11-07 18:54:00,
2013-11-07 13:04:00,52.3,41.3,30.25,WSW,252,3.0,3.0,66,0.00,,,0.19,573,Wunderground v.1.15,2013-11-07 19:04:00,
2013-11-07 13:14:00,52.9,41.0,30.25,NNE,28,4.0,9.0,64,0.00,,,0.19,557,Wunderground v.1.15,2013-11-07 19:14:00,
2013-11-07 13:19:00,53.4,40.3,30.25,NNW,339,4.0,9.0,61,0.00,,,0.19,550,Wunderground v.1.15,2013-11-07 19:19:00,
2013-11-07 13:29:00,52.8,40.1,30.25,NNW,340,5.0,5.0,62,0.00,,,0.19,522,Wunderground v.1.15,2013-11-07 19:29:00,
2013-11-07 13:34:00,52.9,38.1,30.25,NNW,345,6.0,11.0,57,0.00,,,0.19,520,Wunderground v.1.15,2013-11-07 19:34:00,
2013-11-07 13:44:00,53.3,38.0,30.24,North,360,6.0,6.0,56,0.00,,,0.19,499,Wunderground v.1.15,2013-11-07 19:44:00,
2013-11-07 13:49:00,53.3,37.5,30.24,NNW,328,5.0,6.0,55,0.00,,,0.19,485,Wunderground v.1.15,2013-11-07 19:49:00,
2013-11-07 13:59:00,53.6,38.3,30.25,WSW,252,6.0,14.0,56,0.00,,,0.19,462,Wunderground v.1.15,2013-11-07 19:59:00,
2013-11-07 14:09:00,54.0,38.2,30.24,North,5,3.0,8.0,55,0.00,,,0.19,441,Wunderground v.1.15,2013-11-07 20:09:00,
2013-11-07 14:19:00,53.7,36.0,30.24,NNW,348,6.0,6.0,51,0.00,,,0.19,415,Wunderground v.1.15,2013-11-07 20:19:00,
2013-11-07 14:29:00,53.7,36.5,30.24,NNE,13,6.0,6.0,52,0.00,,,0.19,390,Wunderground v.1.15,2013-11-07 20:29:00,
2013-11-07 14:39:00,53.6,35.9,30.24,North,5,5.0,6.0,51,0.00,,,0.19,367,Wunderground v.1.15,2013-11-07 20:39:00,
2013-11-07 14:49:00,53.2,36.5,30.24,WNW,296,4.0,4.0,53,0.00,,,0.19,339,Wunderground v.1.15,2013-11-07 20:49:00,
2013-11-07 14:59:00,53.0,35.8,30.24,ENE,69,4.0,4.0,52,0.00,,,0.19,311,Wunderground v.1.15,2013-11-07 20:59:00,
2013-11-07 15:04:00,53.0,36.3,30.24,NNE,17,4.0,4.0,53,0.00,,,0.19,297,Wunderground v.1.15,2013-11-07 21:04:00,
2013-11-07 15:19:00,52.4,37.6,30.24,NW,306,3.0,3.0,57,0.00,,,0.19,236,Wunderground v.1.15,2013-11-07 21:19:00,
2013-11-07 15:29:00,52.3,36.1,30.25,North,351,3.0,4.0,54,0.00,,,0.19,199,Wunderground v.1.15,2013-11-07 21:29:00,
2013-11-07 15:39:00,52.1,35.9,30.25,WNW,291,3.0,4.0,54,0.00,,,0.19,155,Wunderground v.1.15,2013-11-07 21:39:00,
2013-11-07 15:44:00,52.1,36.4,30.25,North,355,3.0,9.0,55,0.00,,,0.19,135,Wunderground v.1.15,2013-11-07 21:44:00,
2013-11-07 15:54:00,51.8,36.1,30.25,WNW,300,4.0,4.0,55,0.00,,,0.19,100,Wunderground v.1.15,2013-11-07 21:54:00,
2013-11-07 15:59:00,51.6,36.9,30.25,NNE,27,3.0,4.0,57,0.00,,,0.19,77,Wunderground v.1.15,2013-11-07 21:59:00,
2013-11-07 16:09:00,51.1,36.4,30.25,SW,232,2.0,4.0,57,0.00,,,0.19,33,Wunderground v.1.15,2013-11-07 22:09:00,
2013-11-07 16:19:00,50.8,36.1,30.26,NW,320,1.0,2.0,57,0.00,,,0.19,21,Wunderground v.1.15,2013-11-07 22:19:00,
2013-11-07 16:24:00,50.5,35.8,30.25,NNW,333,2.0,2.0,57,0.00,,,0.19,18,Wunderground v.1.15,2013-11-07 22:24:00,
2013-11-07 16:34:00,50.0,35.8,30.26,North,11,1.0,2.0,58,0.00,,,0.19,12,Wunderground v.1.15,2013-11-07 22:34:00,
2013-11-07 16:39:00,49.6,35.8,30.26,WNW,297,1.0,2.0,59,0.00,,,0.19,11,Wunderground v.1.15,2013-11-07 22:39:00,
2013-11-07 16:49:00,49.2,35.0,30.27,NNW,348,1.0,1.0,58,0.00,,,0.19,5,Wunderground v.1.15,2013-11-07 22:49:00,
2013-11-07 16:59:00,48.2,35.8,30.27,North,5,1.0,1.0,62,0.00,,,0.19,0,Wunderground v.1.15,2013-11-07 22:59:00,
2013-11-07 17:04:00,48.0,34.8,30.27,North,355,1.0,1.0,60,0.00,,,0.19,0,Wunderground v.1.15,2013-11-07 23:04:00,
2013-11-07 17:14:00,47.3,35.3,30.27,North,5,0.0,0.0,63,0.00,,,0.19,0,Wunderground v.1.15,2013-11-07 23:14:00,
2013-11-07 17:24:00,47.2,34.0,30.27,WNW,283,1.0,1.0,60,0.00,,,0.19,0,Wunderground v.1.15,2013-11-07 23:24:00,
2013-11-07 17:29:00,46.9,33.7,30.27,WSW,244,1.0,1.0,60,0.00,,,0.19,0,Wunderground v.1.15,2013-11-07 23:29:00,
2013-11-07 17:39:00,46.7,33.5,30.27,West,278,1.0,2.0,60,0.00,,,0.19,0,Wunderground v.1.15,2013-11-07 23:39:00,
2013-11-07 17:49:00,46.4,33.7,30.28,NNE,16,1.0,1.0,61,0.00,,,0.19,0,Wunderground v.1.15,2013-11-07 23:49:00,
2013-11-07 17:59:00,46.0,32.9,30.28,SW,229,1.0,3.0,60,0.00,,,0.19,0,Wunderground v.1.15,2013-11-07 23:59:00,
2013-11-07 18:04:00,45.9,32.4,30.28,NNW,328,1.0,1.0,59,0.00,,,0.19,0,Wunderground v.1.15,2013-11-08 00:04:00,
2013-11-07 18:14:00,45.5,32.8,30.28,North,5,0.0,1.0,61,0.00,,,0.19,0,Wunderground v.1.15,2013-11-08 00:14:00,
2013-11-07 18:19:00,45.3,33.4,30.28,North,10,0.0,1.0,63,0.00,,,0.19,0,Wunderground v.1.15,2013-11-08 00:19:00,
2013-11-07 18:29:00,44.4,33.0,30.29,NNE,20,0.0,0.0,64,0.00,,,0.19,0,Wunderground v.1.15,2013-11-08 00:29:00,
2013-11-07 18:34:00,44.4,33.0,30.29,North,360,0.0,0.0,64,0.00,,,0.19,0,Wunderground v.1.15,2013-11-08 00:34:00,
2013-11-07 18:44:00,43.8,33.6,30.29,North,360,0.0,0.0,67,0.00,,,0.19,0,Wunderground v.1.15,2013-11-08 00:44:00,
2013-11-07 18:49:00,43.5,33.3,30.30,NW,315,0.0,0.0,67,0.00,,,0.19,0,Wunderground v.1.15,2013-11-08 00:49:00,
2013-11-07 18:59:00,42.9,34.1,30.29,NW,309,0.0,0.0,71,0.00,,,0.19,0,Wunderground v.1.15,2013-11-08 00:59:00,
2013-11-07 19:04:00,42.8,33.3,30.29,NW,308,0.0,0.0,69,0.00,,,0.19,0,Wunderground v.1.15,2013-11-08 01:04:00,
2013-11-07 19:14:00,42.7,33.9,30.29,NW,316,0.0,0.0,71,0.00,,,0.19,0,Wunderground v.1.15,2013-11-08 01:14:00,
2013-11-07 19:19:00,43.0,34.6,30.29,WSW,252,0.0,0.0,72,0.00,,,0.19,0,Wunderground v.1.15,2013-11-08 01:19:00,
2013-11-07 19:29:00,43.1,33.3,30.29,WNW,297,1.0,1.0,68,0.00,,,0.19,0,Wunderground v.1.15,2013-11-08 01:29:00,
2013-11-07 19:39:00,42.9,33.4,30.30,North,355,0.0,1.0,69,0.00,,,0.19,0,Wunderground v.1.15,2013-11-08 01:39:00,
2013-11-07 19:49:00,42.8,33.7,30.30,West,280,0.0,0.0,70,0.00,,,0.19,0,Wunderground v.1.15,2013-11-08 01:49:00,
2013-11-07 19:54:00,42.8,33.3,30.30,NNW,337,0.0,0.0,69,0.00,,,0.19,0,Wunderground v.1.15,2013-11-08 01:54:00,
2013-11-07 20:04:00,42.4,33.3,30.30,NNE,26,0.0,0.0,70,0.00,,,0.19,0,Wunderground v.1.15,2013-11-08 02:04:00,
2013-11-07 20:14:00,42.4,33.3,30.30,NE,36,0.0,1.0,70,0.00,,,0.19,0,Wunderground v.1.15,2013-11-08 02:14:00,
2013-11-07 20:19:00,42.1,33.4,30.30,North,9,0.0,1.0,71,0.00,,,0.19,0,Wunderground v.1.15,2013-11-08 02:19:00,
2013-11-07 20:29:00,41.5,33.1,30.30,NNE,12,0.0,0.0,72,0.00,,,0.19,0,Wunderground v.1.15,2013-11-08 02:29:00,
2013-11-07 20:34:00,41.2,33.2,30.31,WSW,244,0.0,0.0,73,0.00,,,0.19,0,Wunderground v.1.15,2013-11-08 02:34:00,
2013-11-07 20:44:00,40.6,33.0,30.31,WSW,244,0.0,0.0,74,0.00,,,0.19,0,Wunderground v.1.15,2013-11-08 02:44:00,
2013-11-07 20:49:00,40.1,32.8,30.31,North,360,0.0,0.0,75,0.00,,,0.19,0,Wunderground v.1.15,2013-11-08 02:49:00,
2013-11-07 20:59:00,39.5,33.2,30.32,NNW,336,0.0,0.0,78,0.00,,,0.19,0,Wunderground v.1.15,2013-11-08 02:59:00,
2013-11-07 21:09:00,39.1,33.1,30.32,NNW,336,0.0,0.0,79,0.00,,,0.19,0,Wunderground v.1.15,2013-11-08 03:09:00,
2013-11-07 21:14:00,38.8,33.2,30.32,NNW,336,0.0,0.0,80,0.00,,,0.19,0,Wunderground v.1.15,2013-11-08 03:14:00,
2013-11-07 21:24:00,38.5,33.2,30.32,North,5,0.0,0.0,81,0.00,,,0.19,0,Wunderground v.1.15,2013-11-08 03:24:00,
2013-11-07 21:34:00,38.1,33.1,30.32,North,5,0.0,0.0,82,0.00,,,0.19,0,Wunderground v.1.15,2013-11-08 03:34:00,
2013-11-07 21:39:00,37.9,32.9,30.32,North,5,0.0,0.0,82,0.00,,,0.19,0,Wunderground v.1.15,2013-11-08 03:39:00,
2013-11-07 21:49:00,37.6,32.9,30.32,NNE,26,0.0,0.0,83,0.00,,,0.19,0,Wunderground v.1.15,2013-11-08 03:49:00,
2013-11-07 21:59:00,37.5,32.8,30.32,NNE,26,0.0,0.0,83,0.00,,,0.19,0,Wunderground v.1.15,2013-11-08 03:59:00,
2013-11-07 22:04:00,37.3,32.9,30.32,NNE,26,0.0,0.0,84,0.00,,,0.19,0,Wunderground v.1.15,2013-11-08 04:04:00,
2013-11-07 22:14:00,37.0,32.9,30.33,NNE,26,0.0,0.0,85,0.00,,,0.19,0,Wunderground v.1.15,2013-11-08 04:14:00,
2013-11-07 22:24:00,36.6,32.5,30.33,NNE,26,0.0,0.0,85,0.00,,,0.19,0,Wunderground v.1.15,2013-11-08 04:24:00,
2013-11-07 22:34:00,36.3,32.2,30.33,NNE,26,0.0,0.0,85,0.00,,,0.19,0,Wunderground v.1.15,2013-11-08 04:34:00,
2013-11-07 22:39:00,36.1,32.0,30.33,NNE,26,0.0,0.0,85,0.00,,,0.19,0,Wunderground v.1.15,2013-11-08 04:39:00,
2013-11-07 22:49:00,35.9,32.1,30.33,NNE,26,0.0,0.0,86,0.00,,,0.19,0,Wunderground v.1.15,2013-11-08 04:49:00,
2013-11-07 22:59:00,35.5,32.0,30.33,NNE,26,0.0,0.0,87,0.00,,,0.19,0,Wunderground v.1.15,2013-11-08 04:59:00,
2013-11-07 23:04:00,35.4,32.2,30.33,NNE,26,0.0,0.0,88,0.00,,,0.19,0,Wunderground v.1.15,2013-11-08 05:04:00,
2013-11-07 23:09:00,35.4,32.2,30.34,NNE,26,0.0,0.0,88,0.00,,,0.19,0,Wunderground v.1.15,2013-11-08 05:09:00,
2013-11-07 23:14:00,35.2,32.3,30.34,NNE,26,0.0,0.0,89,0.00,,,0.19,0,Wunderground v.1.15,2013-11-08 05:14:00,
2013-11-07 23:19:00,35.2,32.3,30.34,NNE,26,0.0,0.0,89,0.00,,,0.19,0,Wunderground v.1.15,2013-11-08 05:19:00,
2013-11-07 23:29:00,35.1,32.2,30.34,NNE,26,0.0,0.0,89,0.00,,,0.19,0,Wunderground v.1.15,2013-11-08 05:29:00,
2013-11-07 23:39:00,34.9,32.0,30.34,NNE,26,0.0,0.0,89,0.00,,,0.19,0,Wunderground v.1.15,2013-11-08 05:39:00,
2013-11-07 23:44:00,34.9,32.0,30.34,NNE,26,0.0,0.0,89,0.00,,,0.19,0,Wunderground v.1.15,2013-11-08 05:44:00,
2013-11-07 23:54:00,34.8,31.9,30.34,NNE,26,0.0,0.0,89,0.00,,,0.19,0,Wunderground v.1.15,2013-11-08 05:54:00,
2013-11-07 23:59:00,34.5,31.6,30.34,NNE,26,0.0,0.0,89,0.00,,,0.00,0,Wunderground v.1.15,2013-11-08 05:59:00,